sensor_id;sensor_type;location;lat;lon;timestamp;pressure;altitude;pressure_sealevel;temperature;humidity
65983;BME280;52740;40.620;-8.640;2022-10-17T00:00:41;101222.38;;;17.19;100.00
65983;BME280;52740;40.620;-8.640;2022-10-17T00:02:42;101220.81;;;17.14;100.00
65983;BME280;52740;40.620;-8.640;2022-10-17T00:04:43;101209.75;;;17.14;100.00
65983;BME280;52740;40.620;-8.640;2022-10-17T00:08:45;101202.25;;;17.04;100.00
65983;BME280;52740;40.620;-8.640;2022-10-17T00:11:04;101200.28;;;17.01;100.00
65983;BME280;52740;40.620;-8.640;2022-10-17T00:13:06;101193.97;;;16.90;100.00
65983;BME280;52740;40.620;-8.640;2022-10-17T00:15:07;101208.22;;;16.92;100.00
65983;BME280;52740;40.620;-8.640;2022-10-17T00:17:08;101199.50;;;16.90;100.00
65983;BME280;52740;40.620;-8.640;2022-10-17T00:19:09;101199.94;;;16.88;100.00
65983;BME280;52740;40.620;-8.640;2022-10-17T00:21:16;101190.84;;;16.84;100.00
65983;BME280;52740;40.620;-8.640;2022-10-17T00:23:18;101180.19;;;16.79;100.00
65983;BME280;52740;40.620;-8.640;2022-10-17T00:25:18;101171.88;;;16.79;100.00
65983;BME280;52740;40.620;-8.640;2022-10-17T00:27:19;101179.34;;;16.86;100.00
65983;BME280;52740;40.620;-8.640;2022-10-17T00:29:20;101183.34;;;16.85;100.00
65983;BME280;52740;40.620;-8.640;2022-10-17T00:31:23;101185.69;;;16.86;100.00
65983;BME280;52740;40.620;-8.640;2022-10-17T00:33:25;101182.53;;;16.88;100.00
65983;BME280;52740;40.620;-8.640;2022-10-17T00:35:26;101186.88;;;16.85;100.00
65983;BME280;52740;40.620;-8.640;2022-10-17T00:37:26;101190.03;;;16.84;100.00
65983;BME280;52740;40.620;-8.640;2022-10-17T00:39:27;101187.28;;;16.84;100.00
65983;BME280;52740;40.620;-8.640;2022-10-17T00:41:31;101175.03;;;16.81;100.00
65983;BME280;52740;40.620;-8.640;2022-10-17T00:43:53;101183.69;;;16.90;100.00
65983;BME280;52740;40.620;-8.640;2022-10-17T00:45:55;101177.38;;;16.86;100.00
65983;BME280;52740;40.620;-8.640;2022-10-17T00:48:08;101192.41;;;16.92;100.00
65983;BME280;52740;40.620;-8.640;2022-10-17T00:50:11;101177.38;;;16.86;100.00
65983;BME280;52740;40.620;-8.640;2022-10-17T00:52:20;101169.88;;;16.83;100.00
65983;BME280;52740;40.620;-8.640;2022-10-17T00:54:26;101180.56;;;16.88;100.00
65983;BME280;52740;40.620;-8.640;2022-10-17T00:56:30;101187.66;;;16.86;100.00
65983;BME280;52740;40.620;-8.640;2022-10-17T00:58:32;101176.59;;;16.82;100.00
65983;BME280;52740;40.620;-8.640;2022-10-17T01:00:33;101183.72;;;16.80;100.00
65983;BME280;52740;40.620;-8.640;2022-10-17T01:02:34;101172.28;;;16.74;100.00
65983;BME280;52740;40.620;-8.640;2022-10-17T01:04:39;101171.47;;;16.74;100.00
65983;BME280;52740;40.620;-8.640;2022-10-17T01:06:41;101179.00;;;16.73;100.00
65983;BME280;52740;40.620;-8.640;2022-10-17T01:08:42;101156.47;;;16.64;100.00
65983;BME280;52740;40.620;-8.640;2022-10-17T01:10:53;101165.56;;;16.75;100.00
65983;BME280;52740;40.620;-8.640;2022-10-17T01:13:17;101167.91;;;16.77;100.00
65983;BME280;52740;40.620;-8.640;2022-10-17T01:24:48;101171.06;;;16.86;100.00
65983;BME280;52740;40.620;-8.640;2022-10-17T01:31:47;101178.94;;;16.91;100.00
65983;BME280;52740;40.620;-8.640;2022-10-17T01:34:01;101173.84;;;16.89;100.00
65983;BME280;52740;40.620;-8.640;2022-10-17T01:36:11;101194.38;;;16.92;100.00
65983;BME280;52740;40.620;-8.640;2022-10-17T01:38:21;101184.50;;;16.87;100.00
65983;BME280;52740;40.620;-8.640;2022-10-17T01:40:29;101205.44;;;16.92;100.00
65983;BME280;52740;40.620;-8.640;2022-10-17T01:42:52;101200.69;;;16.96;100.00
65983;BME280;52740;40.620;-8.640;2022-10-17T01:45:13;101189.25;;;16.83;100.00
65983;BME280;52740;40.620;-8.640;2022-10-17T01:47:19;101200.28;;;16.94;100.00
65983;BME280;52740;40.620;-8.640;2022-10-17T01:49:23;101197.13;;;16.95;100.00
65983;BME280;52740;40.620;-8.640;2022-10-17T01:51:39;101204.25;;;16.93;100.00
65983;BME280;52740;40.620;-8.640;2022-10-17T01:53:51;101198.72;;;16.86;100.00
65983;BME280;52740;40.620;-8.640;2022-10-17T01:55:55;101207.41;;;16.95;100.00
65983;BME280;52740;40.620;-8.640;2022-10-17T01:58:05;101204.25;;;16.96;100.00
65983;BME280;52740;40.620;-8.640;2022-10-17T02:00:11;101191.97;;;16.94;100.00
65983;BME280;52740;40.620;-8.640;2022-10-17T02:02:14;101183.69;;;16.90;100.00
65983;BME280;52740;40.620;-8.640;2022-10-17T02:04:17;101194.38;;;16.95;100.00
65983;BME280;52740;40.620;-8.640;2022-10-17T02:06:18;101199.50;;;16.97;100.00
65983;BME280;52740;40.620;-8.640;2022-10-17T02:08:42;101200.69;;;16.96;100.00
65983;BME280;52740;40.620;-8.640;2022-10-17T02:11:05;101203.84;;;17.05;100.00
65983;BME280;52740;40.620;-8.640;2022-10-17T02:15:58;101191.56;;;17.13;100.00
65983;BME280;52740;40.620;-8.640;2022-10-17T02:20:37;101201.84;;;17.12;100.00
65983;BME280;52740;40.620;-8.640;2022-10-17T02:22:46;101203.41;;;17.13;100.00
65983;BME280;52740;40.620;-8.640;2022-10-17T02:24:56;101195.53;;;17.08;100.00
65983;BME280;52740;40.620;-8.640;2022-10-17T02:27:09;101213.69;;;17.17;100.00
65983;BME280;52740;40.620;-8.640;2022-10-17T02:29:13;101206.19;;;17.13;100.00
65983;BME280;52740;40.620;-8.640;2022-10-17T02:31:27;101210.53;;;17.15;100.00
65983;BME280;52740;40.620;-8.640;2022-10-17T02:33:46;101203.00;;;17.19;100.00
65983;BME280;52740;40.620;-8.640;2022-10-17T02:35:53;101201.06;;;17.16;100.00
65983;BME280;52740;40.620;-8.640;2022-10-17T02:37:58;101194.69;;;17.19;100.00
65983;BME280;52740;40.620;-8.640;2022-10-17T02:40:01;101203.00;;;17.19;100.00
65983;BME280;52740;40.620;-8.640;2022-10-17T02:42:05;101197.47;;;17.19;100.00
65983;BME280;52740;40.620;-8.640;2022-10-17T02:44:07;101186.81;;;17.13;100.00
65983;BME280;52740;40.620;-8.640;2022-10-17T02:46:09;101195.06;;;17.21;100.00
65983;BME280;52740;40.620;-8.640;2022-10-17T02:48:25;101200.22;;;17.26;100.00
65983;BME280;52740;40.620;-8.640;2022-10-17T02:50:56;101195.47;;;17.26;100.00
65983;BME280;52740;40.620;-8.640;2022-10-17T02:53:05;101197.06;;;17.27;100.00
65983;BME280;52740;40.620;-8.640;2022-10-17T02:59:32;101202.19;;;17.29;100.00
65983;BME280;52740;40.620;-8.640;2022-10-17T03:01:35;101192.72;;;17.23;100.00
65983;BME280;52740;40.620;-8.640;2022-10-17T03:03:37;101187.19;;;17.23;100.00
65983;BME280;52740;40.620;-8.640;2022-10-17T03:05:37;101204.97;;;17.29;100.00
65983;BME280;52740;40.620;-8.640;2022-10-17T03:07:39;101200.59;;;17.28;100.00
65983;BME280;52740;40.620;-8.640;2022-10-17T03:09:40;101201.78;;;17.27;100.00
65983;BME280;52740;40.620;-8.640;2022-10-17T03:11:41;101201.81;;;17.23;100.00
65983;BME280;52740;40.620;-8.640;2022-10-17T03:13:42;101197.06;;;17.24;100.00
65983;BME280;52740;40.620;-8.640;2022-10-17T03:15:43;101203.78;;;17.23;100.00
65983;BME280;52740;40.620;-8.640;2022-10-17T03:17:45;101210.53;;;17.18;100.00
65983;BME280;52740;40.620;-8.640;2022-10-17T03:19:47;101210.13;;;17.16;100.00
65983;BME280;52740;40.620;-8.640;2022-10-17T03:21:48;101214.50;;;17.13;100.00
65983;BME280;52740;40.620;-8.640;2022-10-17T03:23:49;101207.00;;;17.10;100.00
65983;BME280;52740;40.620;-8.640;2022-10-17T03:25:51;101198.69;;;17.03;100.00
65983;BME280;52740;40.620;-8.640;2022-10-17T03:27:52;101207.78;;;17.04;100.00
65983;BME280;52740;40.620;-8.640;2022-10-17T03:29:54;101208.16;;;17.13;100.00
65983;BME280;52740;40.620;-8.640;2022-10-17T03:31:54;101210.13;;;17.12;100.00
65983;BME280;52740;40.620;-8.640;2022-10-17T03:33:55;101207.00;;;17.10;100.00
65983;BME280;52740;40.620;-8.640;2022-10-17T03:35:56;101216.44;;;17.17;100.00
65983;BME280;52740;40.620;-8.640;2022-10-17T03:37:57;101211.69;;;17.21;100.00
65983;BME280;52740;40.620;-8.640;2022-10-17T03:39:59;101202.22;;;17.15;100.00
65983;BME280;52740;40.620;-8.640;2022-10-17T03:42:00;101205.78;;;17.19;100.00
65983;BME280;52740;40.620;-8.640;2022-10-17T03:44:01;101202.19;;;17.22;100.00
65983;BME280;52740;40.620;-8.640;2022-10-17T03:46:02;101206.16;;;17.24;100.00
65983;BME280;52740;40.620;-8.640;2022-10-17T03:48:03;101211.28;;;17.22;100.00
65983;BME280;52740;40.620;-8.640;2022-10-17T03:50:05;101203.41;;;17.17;100.00
65983;BME280;52740;40.620;-8.640;2022-10-17T03:52:12;101208.53;;;17.22;100.00
65983;BME280;52740;40.620;-8.640;2022-10-17T03:54:13;101216.84;;;17.19;100.00
65983;BME280;52740;40.620;-8.640;2022-10-17T03:56:19;101212.53;;;17.10;100.00
65983;BME280;52740;40.620;-8.640;2022-10-17T03:58:27;101224.00;;;17.09;100.00
65983;BME280;52740;40.620;-8.640;2022-10-17T04:00:29;101224.00;;;17.05;100.00
65983;BME280;52740;40.620;-8.640;2022-10-17T04:02:31;101224.81;;;17.02;100.00
65983;BME280;52740;40.620;-8.640;2022-10-17T04:04:34;101229.16;;;16.93;100.00
65983;BME280;52740;40.620;-8.640;2022-10-17T04:06:35;101230.72;;;16.94;100.00
65983;BME280;52740;40.620;-8.640;2022-10-17T04:08:37;101236.28;;;16.87;100.00
65983;BME280;52740;40.620;-8.640;2022-10-17T04:10:41;101230.38;;;16.85;100.00
65983;BME280;52740;40.620;-8.640;2022-10-17T04:12:42;101234.72;;;16.72;100.00
65983;BME280;52740;40.620;-8.640;2022-10-17T04:14:43;101244.19;;;16.74;100.00
65983;BME280;52740;40.620;-8.640;2022-10-17T04:16:44;101241.44;;;16.71;100.00
65983;BME280;52740;40.620;-8.640;2022-10-17T04:18:57;101243.00;;;16.79;100.00
65983;BME280;52740;40.620;-8.640;2022-10-17T04:21:03;101246.19;;;16.74;100.00
65983;BME280;52740;40.620;-8.640;2022-10-17T04:23:05;101257.22;;;16.77;100.00
65983;BME280;52740;40.620;-8.640;2022-10-17T04:25:06;101260.41;;;16.83;100.00
65983;BME280;52740;40.620;-8.640;2022-10-17T04:27:09;101257.25;;;16.84;100.00
65983;BME280;52740;40.620;-8.640;2022-10-17T04:29:14;101237.84;;;16.81;100.00
65983;BME280;52740;40.620;-8.640;2022-10-17T04:31:17;101253.69;;;16.87;100.00
65983;BME280;52740;40.620;-8.640;2022-10-17T04:33:36;101249.72;;;16.88;100.00
65983;BME280;52740;40.620;-8.640;2022-10-17T04:35:37;101243.03;;;16.89;100.00
65983;BME280;52740;40.620;-8.640;2022-10-17T04:37:39;101257.22;;;16.91;100.00
65983;BME280;52740;40.620;-8.640;2022-10-17T04:39:46;101267.50;;;16.91;100.00
65983;BME280;52740;40.620;-8.640;2022-10-17T04:41:47;101261.19;;;16.90;100.00
65983;BME280;52740;40.620;-8.640;2022-10-17T04:43:48;101259.63;;;16.89;100.00
65983;BME280;52740;40.620;-8.640;2022-10-17T04:45:49;101267.50;;;16.94;100.00
65983;BME280;52740;40.620;-8.640;2022-10-17T04:47:50;101280.56;;;17.01;100.00
65983;BME280;52740;40.620;-8.640;2022-10-17T04:49:50;101281.34;;;17.01;100.00
65983;BME280;52740;40.620;-8.640;2022-10-17T04:51:52;101283.31;;;17.04;100.00
65983;BME280;52740;40.620;-8.640;2022-10-17T04:53:59;101283.72;;;17.06;100.00
65983;BME280;52740;40.620;-8.640;2022-10-17T04:56:00;101286.84;;;17.08;100.00
65983;BME280;52740;40.620;-8.640;2022-10-17T04:58:02;101284.09;;;17.08;100.00
65983;BME280;52740;40.620;-8.640;2022-10-17T05:00:04;101279.75;;;17.07;100.00
65983;BME280;52740;40.620;-8.640;2022-10-17T05:02:27;101277.75;;;17.11;100.00
65983;BME280;52740;40.620;-8.640;2022-10-17T05:04:28;101284.06;;;17.12;100.00
65983;BME280;52740;40.620;-8.640;2022-10-17T05:06:29;101277.78;;;17.04;100.00
65983;BME280;52740;40.620;-8.640;2022-10-17T05:08:42;101288.81;;;17.11;100.00
65983;BME280;52740;40.620;-8.640;2022-10-17T05:10:44;101288.03;;;17.18;100.00
65983;BME280;52740;40.620;-8.640;2022-10-17T05:12:48;101288.84;;;17.19;100.00
65983;BME280;52740;40.620;-8.640;2022-10-17T05:14:51;101276.19;;;17.14;100.00
65983;BME280;52740;40.620;-8.640;2022-10-17T05:16:52;101286.44;;;17.17;100.00
65983;BME280;52740;40.620;-8.640;2022-10-17T05:18:55;101302.28;;;17.24;100.00
65983;BME280;52740;40.620;-8.640;2022-10-17T05:20:56;101292.38;;;17.26;100.00
65983;BME280;52740;40.620;-8.640;2022-10-17T05:22:58;101282.91;;;17.24;100.00
65983;BME280;52740;40.620;-8.640;2022-10-17T05:25:03;101301.06;;;17.28;100.00
65983;BME280;52740;40.620;-8.640;2022-10-17T05:27:04;101290.81;;;17.29;100.00
65983;BME280;52740;40.620;-8.640;2022-10-17T05:29:05;101295.13;;;17.33;100.00
65983;BME280;52740;40.620;-8.640;2022-10-17T05:31:09;101293.56;;;17.25;100.00
65983;BME280;52740;40.620;-8.640;2022-10-17T05:33:10;101308.97;;;17.33;100.00
65983;BME280;52740;40.620;-8.640;2022-10-17T05:35:11;101316.50;;;17.33;100.00
65983;BME280;52740;40.620;-8.640;2022-10-17T05:37:12;101316.50;;;17.33;100.00
65983;BME280;52740;40.620;-8.640;2022-10-17T05:39:16;101308.59;;;17.24;100.00
65983;BME280;52740;40.620;-8.640;2022-10-17T05:41:20;101316.50;;;17.33;100.00
65983;BME280;52740;40.620;-8.640;2022-10-17T05:43:21;101316.09;;;17.27;100.00
65983;BME280;52740;40.620;-8.640;2022-10-17T05:45:22;101322.03;;;17.26;100.00
65983;BME280;52740;40.620;-8.640;2022-10-17T05:47:22;101320.88;;;17.20;100.00
65983;BME280;52740;40.620;-8.640;2022-10-17T05:49:23;101321.25;;;17.22;100.00
65983;BME280;52740;40.620;-8.640;2022-10-17T05:51:24;101317.31;;;17.16;100.00
65983;BME280;52740;40.620;-8.640;2022-10-17T05:53:29;101320.06;;;17.23;100.00
65983;BME280;52740;40.620;-8.640;2022-10-17T05:55:33;101325.59;;;17.23;100.00
65983;BME280;52740;40.620;-8.640;2022-10-17T05:57:34;101318.09;;;17.23;100.00
65983;BME280;52740;40.620;-8.640;2022-10-17T05:59:36;101321.25;;;17.29;100.00
65983;BME280;52740;40.620;-8.640;2022-10-17T06:01:44;101322.81;;;17.30;100.00
65983;BME280;52740;40.620;-8.640;2022-10-17T06:03:44;101323.59;;;17.34;100.00
65983;BME280;52740;40.620;-8.640;2022-10-17T06:05:45;101314.13;;;17.28;100.00
65983;BME280;52740;40.620;-8.640;2022-10-17T06:07:47;101334.69;;;17.37;100.00
65983;BME280;52740;40.620;-8.640;2022-10-17T06:09:50;101326.38;;;17.37;100.00
65983;BME280;52740;40.620;-8.640;2022-10-17T06:11:51;101325.97;;;17.46;100.00
65983;BME280;52740;40.620;-8.640;2022-10-17T06:13:51;101314.88;;;17.46;100.00
65983;BME280;52740;40.620;-8.640;2022-10-17T06:15:57;101325.16;;;17.49;100.00
65983;BME280;52740;40.620;-8.640;2022-10-17T06:17:58;101324.75;;;17.54;100.00
65983;BME280;52740;40.620;-8.640;2022-10-17T06:19:59;101318.03;;;17.51;100.00
65983;BME280;52740;40.620;-8.640;2022-10-17T06:22:00;101330.66;;;17.56;100.00
65983;BME280;52740;40.620;-8.640;2022-10-17T06:24:03;101329.13;;;17.59;100.00
65983;BME280;52740;40.620;-8.640;2022-10-17T06:26:09;101331.47;;;17.53;100.00
65983;BME280;52740;40.620;-8.640;2022-10-17T06:28:11;101331.47;;;17.56;100.00
65983;BME280;52740;40.620;-8.640;2022-10-17T06:30:12;101319.63;;;17.45;100.00
65983;BME280;52740;40.620;-8.640;2022-10-17T06:32:13;101326.31;;;17.51;100.00
65983;BME280;52740;40.620;-8.640;2022-10-17T06:34:14;101325.94;;;17.49;100.00
65983;BME280;52740;40.620;-8.640;2022-10-17T06:36:15;101329.13;;;17.48;100.00
65983;BME280;52740;40.620;-8.640;2022-10-17T06:38:18;101327.53;;;17.47;100.00
65983;BME280;52740;40.620;-8.640;2022-10-17T06:40:18;101331.09;;;17.47;100.00
65983;BME280;52740;40.620;-8.640;2022-10-17T06:42:19;101316.88;;;17.38;100.00
65983;BME280;52740;40.620;-8.640;2022-10-17T06:44:27;101320.03;;;17.44;100.00
65983;BME280;52740;40.620;-8.640;2022-10-17T06:46:50;101327.53;;;17.50;100.00
65983;BME280;52740;40.620;-8.640;2022-10-17T06:48:52;101328.31;;;17.51;100.00
65983;BME280;52740;40.620;-8.640;2022-10-17T06:51:04;101333.84;;;17.51;100.00
65983;BME280;52740;40.620;-8.640;2022-10-17T06:53:15;101325.19;;;17.42;100.00
65983;BME280;52740;40.620;-8.640;2022-10-17T06:55:25;101327.53;;;17.47;100.00
65983;BME280;52740;40.620;-8.640;2022-10-17T06:57:54;101334.66;;;17.48;100.00
65983;BME280;52740;40.620;-8.640;2022-10-17T07:00:08;101328.75;;;17.46;100.00
65983;BME280;52740;40.620;-8.640;2022-10-17T07:02:15;101333.50;;;17.42;100.00
65983;BME280;52740;40.620;-8.640;2022-10-17T07:04:17;101339.44;;;17.37;100.00
65983;BME280;52740;40.620;-8.640;2022-10-17T07:06:18;101348.50;;;17.48;100.00
65983;BME280;52740;40.620;-8.640;2022-10-17T07:08:19;101342.97;;;17.55;100.00
65983;BME280;52740;40.620;-8.640;2022-10-17T07:10:20;101342.56;;;17.53;100.00
65983;BME280;52740;40.620;-8.640;2022-10-17T07:12:21;101344.16;;;17.61;100.00
65983;BME280;52740;40.620;-8.640;2022-10-17T07:14:24;101349.69;;;17.68;100.00
65983;BME280;52740;40.620;-8.640;2022-10-17T07:16:31;101354.38;;;17.78;100.00
65983;BME280;52740;40.620;-8.640;2022-10-17T07:18:41;101343.69;;;17.84;100.00
65983;BME280;52740;40.620;-8.640;2022-10-17T07:20:42;101355.94;;;17.93;100.00
65983;BME280;52740;40.620;-8.640;2022-10-17T07:22:42;101349.22;;;17.87;100.00
65983;BME280;52740;40.620;-8.640;2022-10-17T07:24:44;101369.75;;;18.04;100.00
65983;BME280;52740;40.620;-8.640;2022-10-17T07:26:55;101366.22;;;17.96;100.00
65983;BME280;52740;40.620;-8.640;2022-10-17T07:28:56;101378.47;;;18.06;100.00
65983;BME280;52740;40.620;-8.640;2022-10-17T07:31:13;101378.81;;;18.08;100.00
65983;BME280;52740;40.620;-8.640;2022-10-17T07:33:14;101382.78;;;18.14;100.00
65983;BME280;52740;40.620;-8.640;2022-10-17T07:35:15;101381.16;;;18.17;100.00
65983;BME280;52740;40.620;-8.640;2022-10-17T07:37:19;101388.69;;;18.20;100.00
65983;BME280;52740;40.620;-8.640;2022-10-17T07:39:26;101390.28;;;18.21;100.00
65983;BME280;52740;40.620;-8.640;2022-10-17T07:41:27;101390.19;;;18.35;100.00
65983;BME280;52740;40.620;-8.640;2022-10-17T07:43:29;101387.44;;;18.35;100.00
65983;BME280;52740;40.620;-8.640;2022-10-17T07:45:32;101396.09;;;18.44;100.00
65983;BME280;52740;40.620;-8.640;2022-10-17T07:47:33;101405.97;;;18.52;100.00
65983;BME280;52740;40.620;-8.640;2022-10-17T07:49:35;101406.34;;;18.61;100.00
65983;BME280;52740;40.620;-8.640;2022-10-17T07:54:05;101409.13;;;18.61;100.00
65983;BME280;52740;40.620;-8.640;2022-10-17T07:56:07;101406.31;;;18.68;100.00
65983;BME280;52740;40.620;-8.640;2022-10-17T07:58:09;101418.59;;;18.67;100.00
65983;BME280;52740;40.620;-8.640;2022-10-17T08:00:11;101429.34;;;18.62;100.00
65983;BME280;52740;40.620;-8.640;2022-10-17T08:02:25;101432.09;;;18.65;100.00
65983;BME280;52740;40.620;-8.640;2022-10-17T08:04:27;101444.38;;;18.61;100.00
65983;BME280;52740;40.620;-8.640;2022-10-17T08:06:27;101436.47;;;18.52;100.00
65983;BME280;52740;40.620;-8.640;2022-10-17T08:08:28;101447.97;;;18.61;100.00
65983;BME280;52740;40.620;-8.640;2022-10-17T08:10:29;101438.09;;;18.53;100.00
65983;BME280;52740;40.620;-8.640;2022-10-17T08:12:30;101441.25;;;18.48;100.00
65983;BME280;52740;40.620;-8.640;2022-10-17T08:14:33;101436.47;;;18.52;100.00
65983;BME280;52740;40.620;-8.640;2022-10-17T08:16:34;101446.72;;;18.69;100.00
65983;BME280;52740;40.620;-8.640;2022-10-17T08:18:36;101453.34;;;18.93;100.00
65983;BME280;52740;40.620;-8.640;2022-10-17T08:20:39;101461.84;;;19.23;100.00
65983;BME280;52740;40.620;-8.640;2022-10-17T08:22:39;101470.28;;;19.64;100.00
65983;BME280;52740;40.620;-8.640;2022-10-17T08:24:40;101469.41;;;20.12;100.00
65983;BME280;52740;40.620;-8.640;2022-10-17T08:26:42;101464.25;;;20.48;100.00
65983;BME280;52740;40.620;-8.640;2022-10-17T08:28:42;101464.03;;;20.65;100.00
65983;BME280;52740;40.620;-8.640;2022-10-17T08:30:43;101470.44;;;20.89;100.00
65983;BME280;52740;40.620;-8.640;2022-10-17T08:32:44;101463.63;;;20.94;100.00
65983;BME280;52740;40.620;-8.640;2022-10-17T08:34:45;101477.16;;;21.22;100.00
65983;BME280;52740;40.620;-8.640;2022-10-17T08:36:45;101478.50;;;21.37;100.00
65983;BME280;52740;40.620;-8.640;2022-10-17T08:38:46;101481.06;;;21.51;100.00
65983;BME280;52740;40.620;-8.640;2022-10-17T08:40:47;101484.16;;;21.57;100.00
65983;BME280;52740;40.620;-8.640;2022-10-17T08:45:18;101490.22;;;21.75;100.00
65983;BME280;52740;40.620;-8.640;2022-10-17T08:47:33;101485.31;;;21.83;100.00
65983;BME280;52740;40.620;-8.640;2022-10-17T08:50:17;101491.66;;;21.83;100.00
65983;BME280;52740;40.620;-8.640;2022-10-17T08:52:02;101486.03;;;21.87;100.00
65983;BME280;52740;40.620;-8.640;2022-10-17T08:54:21;101487.00;;;21.77;100.00
65983;BME280;52740;40.620;-8.640;2022-10-17T08:56:37;101490.34;;;21.68;100.00
65983;BME280;52740;40.620;-8.640;2022-10-17T08:58:39;101502.75;;;21.64;100.00
65983;BME280;52740;40.620;-8.640;2022-10-17T09:00:45;101510.03;;;21.57;100.00
65983;BME280;52740;40.620;-8.640;2022-10-17T09:02:55;101499.38;;;21.76;100.00
65983;BME280;52740;40.620;-8.640;2022-10-17T09:14:30;101503.72;;;22.43;100.00
65983;BME280;52740;40.620;-8.640;2022-10-17T09:16:49;101515.25;;;22.45;100.00
65983;BME280;52740;40.620;-8.640;2022-10-17T09:19:02;101523.53;;;22.48;100.00
65983;BME280;52740;40.620;-8.640;2022-10-17T09:21:16;101525.13;;;22.69;100.00
65983;BME280;52740;40.620;-8.640;2022-10-17T09:23:21;101529.09;;;22.72;100.00
65983;BME280;52740;40.620;-8.640;2022-10-17T09:25:23;101523.91;;;22.90;100.00
65983;BME280;52740;40.620;-8.640;2022-10-17T09:29:26;101533.03;;;23.10;100.00
65983;BME280;52740;40.620;-8.640;2022-10-17T09:31:34;101528.53;;;23.32;100.00
65983;BME280;52740;40.620;-8.640;2022-10-17T09:33:42;101539.88;;;23.25;100.00
65983;BME280;52740;40.620;-8.640;2022-10-17T09:35:44;101533.25;;;23.35;100.00
65983;BME280;52740;40.620;-8.640;2022-10-17T09:37:46;101533.84;;;23.27;100.00
65983;BME280;52740;40.620;-8.640;2022-10-17T09:39:48;101534.13;;;23.32;100.00
65983;BME280;52740;40.620;-8.640;2022-10-17T09:41:53;101535.41;;;23.64;100.00
65983;BME280;52740;40.620;-8.640;2022-10-17T09:44:17;101533.41;;;23.64;100.00
65983;BME280;52740;40.620;-8.640;2022-10-17T09:46:25;101532.34;;;23.58;100.00
65983;BME280;52740;40.620;-8.640;2022-10-17T09:48:36;101532.41;;;23.39;100.00
65983;BME280;52740;40.620;-8.640;2022-10-17T09:50:38;101534.94;;;23.49;100.00
65983;BME280;52740;40.620;-8.640;2022-10-17T09:52:41;101537.63;;;23.36;100.00
65983;BME280;52740;40.620;-8.640;2022-10-17T09:54:45;101527.66;;;23.35;100.00
65983;BME280;52740;40.620;-8.640;2022-10-17T09:57:08;101541.84;;;23.45;100.00
65983;BME280;52740;40.620;-8.640;2022-10-17T09:59:09;101526.31;;;23.60;100.00
65983;BME280;52740;40.620;-8.640;2022-10-17T10:01:25;101538.88;;;23.84;100.00
65983;BME280;52740;40.620;-8.640;2022-10-17T10:03:26;101535.28;;;23.84;100.00
65983;BME280;52740;40.620;-8.640;2022-10-17T10:05:27;101537.47;;;23.92;100.00
65983;BME280;52740;40.620;-8.640;2022-10-17T10:07:30;101538.94;;;23.97;100.00
65983;BME280;52740;40.620;-8.640;2022-10-17T10:09:34;101544.13;;;23.82;100.00
65983;BME280;52740;40.620;-8.640;2022-10-17T10:11:51;101534.88;;;23.69;100.00
65983;BME280;52740;40.620;-8.640;2022-10-17T10:13:53;101550.28;;;23.41;100.00
65983;BME280;52740;40.620;-8.640;2022-10-17T10:16:18;101544.44;;;23.35;100.00
65983;BME280;52740;40.620;-8.640;2022-10-17T10:18:27;101542.69;;;23.42;100.00
65983;BME280;52740;40.620;-8.640;2022-10-17T10:20:36;101538.13;;;23.51;100.00
65983;BME280;52740;40.620;-8.640;2022-10-17T10:22:37;101539.84;;;23.61;100.00
65983;BME280;52740;40.620;-8.640;2022-10-17T10:24:38;101537.50;;;23.60;100.00
65983;BME280;52740;40.620;-8.640;2022-10-17T10:26:48;101547.00;;;23.62;100.00
65983;BME280;52740;40.620;-8.640;2022-10-17T10:28:59;101551.84;;;23.78;100.00
65983;BME280;52740;40.620;-8.640;2022-10-17T10:31:06;101552.94;;;23.97;100.00
65983;BME280;52740;40.620;-8.640;2022-10-17T10:33:10;101547.41;;;24.26;100.00
65983;BME280;52740;40.620;-8.640;2022-10-17T10:35:32;101547.91;;;24.37;100.00
65983;BME280;52740;40.620;-8.640;2022-10-17T10:37:37;101548.06;;;24.46;100.00
65983;BME280;52740;40.620;-8.640;2022-10-17T10:39:47;101548.72;;;24.50;100.00
65983;BME280;52740;40.620;-8.640;2022-10-17T10:41:49;101544.88;;;24.73;100.00
65983;BME280;52740;40.620;-8.640;2022-10-17T10:43:50;101543.06;;;24.95;100.00
65983;BME280;52740;40.620;-8.640;2022-10-17T10:45:53;101537.66;;;24.59;100.00
65983;BME280;52740;40.620;-8.640;2022-10-17T10:47:54;101533.06;;;24.52;100.00
65983;BME280;52740;40.620;-8.640;2022-10-17T10:50:26;101550.47;;;24.60;100.00
65983;BME280;52740;40.620;-8.640;2022-10-17T10:52:34;101552.94;;;24.70;100.00
65983;BME280;52740;40.620;-8.640;2022-10-17T10:54:43;101539.72;;;24.71;100.00
65983;BME280;52740;40.620;-8.640;2022-10-17T10:56:49;101557.19;;;24.91;100.00
65983;BME280;52740;40.620;-8.640;2022-10-17T10:59:14;101552.38;;;25.30;100.00
65983;BME280;52740;40.620;-8.640;2022-10-17T11:05:59;101555.00;;;26.09;100.00
65983;BME280;52740;40.620;-8.640;2022-10-17T11:08:10;101559.28;;;26.01;100.00
65983;BME280;52740;40.620;-8.640;2022-10-17T11:10:47;101552.13;;;25.87;100.00
65983;BME280;52740;40.620;-8.640;2022-10-17T11:18:18;101559.06;;;25.95;100.00
65983;BME280;52740;40.620;-8.640;2022-10-17T11:23:13;101562.72;;;26.18;100.00
65983;BME280;52740;40.620;-8.640;2022-10-17T11:25:33;101557.69;;;26.47;100.00
65983;BME280;52740;40.620;-8.640;2022-10-17T11:27:34;101559.63;;;26.59;99.03
65983;BME280;52740;40.620;-8.640;2022-10-17T11:29:39;101564.88;;;26.70;98.03
65983;BME280;52740;40.620;-8.640;2022-10-17T11:31:45;101564.50;;;26.59;99.13
65983;BME280;52740;40.620;-8.640;2022-10-17T11:33:53;101563.44;;;26.43;99.32